createdAt,value
2018-02-23T00:00:35.274Z,7.20
2018-02-23T00:03:02.790Z,7.97
2018-02-23T00:05:30.330Z,7.18
2018-02-23T00:07:57.854Z,6.55
2018-02-23T00:10:25.389Z,7.40
2018-02-23T00:12:52.916Z,7.20
2018-02-23T00:15:20.458Z,7.32
2018-02-23T00:17:48.001Z,6.82
2018-02-23T00:20:15.524Z,6.62
2018-02-23T00:22:43.049Z,7.28
2018-02-23T00:25:10.585Z,7.40
2018-02-23T00:27:38.878Z,7.32
2018-02-23T00:30:06.424Z,7.60
2018-02-23T00:32:34.721Z,6.90
2018-02-23T00:35:02.251Z,6.65
2018-02-23T00:37:30.529Z,6.85
2018-02-23T00:39:58.860Z,7.03
2018-02-23T00:42:26.389Z,7.30
2018-02-23T00:44:53.904Z,6.90
2018-02-23T00:47:21.434Z,7.30
2018-02-23T00:49:48.977Z,6.55
2018-02-23T00:52:16.492Z,6.05
2018-02-23T00:54:43.992Z,6.82
2018-02-23T00:57:11.545Z,7.28
2018-02-23T00:59:39.069Z,5.60
2018-02-23T01:02:06.579Z,7.53
2018-02-23T01:04:34.126Z,7.00
2018-02-23T01:07:01.669Z,7.95
2018-02-23T01:09:30.958Z,7.15
2018-02-23T01:11:58.495Z,6.40
2018-02-23T01:14:26.008Z,6.53
2018-02-23T01:16:53.550Z,7.20
2018-02-23T01:19:21.857Z,7.50
2018-02-23T01:21:49.385Z,6.95
2018-02-23T01:24:17.660Z,7.65
2018-02-23T01:26:45.968Z,6.62
2018-02-23T01:29:14.431Z,7.25
2018-02-23T01:31:41.940Z,6.97
2018-02-23T01:34:09.492Z,6.30
2018-02-23T01:36:37.018Z,7.68
2018-02-23T01:39:05.295Z,6.85
2018-02-23T01:41:33.621Z,6.70
2018-02-23T01:44:01.138Z,6.97
2018-02-23T01:46:28.658Z,6.00
2018-02-23T01:48:56.196Z,7.28
2018-02-23T01:51:23.775Z,7.22
2018-02-23T01:53:51.294Z,6.50
2018-02-23T01:56:18.836Z,7.90
2018-02-23T01:58:46.378Z,7.70
2018-02-23T02:01:14.650Z,7.07
2018-02-23T02:03:42.977Z,6.72
2018-02-23T02:06:10.510Z,7.18
2018-02-23T02:08:38.941Z,5.95
2018-02-23T02:11:06.473Z,6.82
2018-02-23T02:13:33.982Z,6.47
2018-02-23T02:16:01.523Z,5.93
2018-02-23T02:18:29.039Z,7.45
2018-02-23T02:20:56.590Z,7.28
2018-02-23T02:23:24.149Z,7.32
2018-02-23T02:25:51.673Z,8.20
2018-02-23T02:28:19.220Z,7.85
2018-02-23T02:30:47.763Z,7.60
2018-02-23T02:33:15.280Z,7.87
2018-02-23T02:35:42.799Z,6.62
2018-02-23T02:38:10.337Z,6.75
2018-02-23T02:40:37.853Z,7.05
2018-02-23T02:43:05.391Z,7.35
2018-02-23T02:45:32.913Z,8.57
2018-02-23T02:48:00.410Z,8.23
2018-02-23T02:50:27.930Z,8.60
2018-02-23T02:52:55.445Z,9.32
2018-02-23T02:55:23.370Z,8.65
2018-02-23T02:57:50.884Z,8.27
2018-02-23T03:00:18.387Z,8.10
2018-02-23T03:02:46.827Z,9.10
2018-02-23T03:05:14.363Z,9.95
2018-02-23T03:07:41.901Z,9.30
2018-02-23T03:10:09.414Z,9.02
2018-02-23T03:12:36.937Z,8.75
2018-02-23T03:15:04.467Z,8.85
2018-02-23T03:17:31.977Z,9.60
2018-02-23T03:19:59.504Z,7.87
2018-02-23T03:22:27.018Z,8.88
2018-02-23T03:24:55.305Z,9.40
2018-02-23T03:27:23.591Z,9.05
2018-02-23T03:29:51.861Z,10.18
2018-02-23T03:32:20.157Z,8.75
2018-02-23T03:34:47.666Z,8.32
2018-02-23T03:37:15.191Z,8.60
2018-02-23T03:39:42.715Z,7.45
2018-02-23T03:42:10.976Z,9.23
2018-02-23T03:44:38.500Z,9.02
2018-02-23T03:47:06.014Z,10.25
2018-02-23T03:49:34.292Z,9.18
2018-02-23T03:52:02.587Z,8.18
2018-02-23T03:54:30.086Z,10.15
2018-02-23T03:56:57.620Z,8.68
2018-02-23T03:59:25.130Z,8.93
2018-02-23T04:01:52.632Z,8.50
2018-02-23T04:04:20.177Z,8.13
2018-02-23T04:06:47.686Z,7.30
2018-02-23T04:09:15.217Z,8.25
2018-02-23T04:11:42.731Z,9.32
2018-02-23T04:14:11.033Z,9.70
2018-02-23T04:16:39.318Z,10.15
2018-02-23T04:19:06.831Z,9.00
2018-02-23T04:21:34.349Z,10.07
2018-02-23T04:24:01.860Z,9.32
2018-02-23T04:26:29.365Z,9.77
2018-02-23T04:28:56.891Z,8.20
2018-02-23T04:31:25.155Z,10.00
2018-02-23T04:33:52.666Z,9.00
2018-02-23T04:36:20.180Z,9.70
2018-02-23T04:38:47.678Z,9.68
2018-02-23T04:41:15.214Z,10.15
2018-02-23T04:43:43.489Z,10.18
2018-02-23T04:46:11.816Z,8.90
2018-02-23T04:48:40.355Z,9.30
2018-02-23T04:51:08.643Z,8.77
2018-02-23T04:53:36.143Z,8.93
2018-02-23T04:56:03.648Z,7.90
2018-02-23T04:58:31.953Z,10.98
2018-02-23T05:01:00.334Z,8.70
2018-02-23T05:03:27.900Z,8.88
2018-02-23T05:05:55.400Z,10.02
2018-02-23T05:08:22.931Z,10.60
2018-02-23T05:10:50.491Z,10.02
2018-02-23T05:13:17.976Z,8.43
2018-02-23T05:15:45.501Z,9.90
2018-02-23T05:18:14.040Z,9.10
2018-02-23T05:20:41.561Z,8.73
2018-02-23T05:23:09.062Z,8.82
2018-02-23T05:25:37.363Z,9.70
2018-02-23T05:28:04.873Z,10.20
2018-02-23T05:30:32.373Z,10.63
2018-02-23T05:32:59.909Z,10.68
2018-02-23T05:35:27.422Z,10.25
2018-02-23T05:37:54.947Z,10.63
2018-02-23T05:40:23.222Z,9.23
2018-02-23T05:42:51.540Z,10.00
2018-02-23T05:45:19.888Z,9.35
2018-02-23T05:47:47.436Z,9.43
2018-02-23T05:50:15.740Z,8.13
2018-02-23T05:52:43.252Z,9.65
2018-02-23T05:55:10.789Z,10.35
2018-02-23T05:57:38.309Z,10.52
2018-02-23T06:00:05.857Z,9.98
2018-02-23T06:02:34.131Z,8.30
2018-02-23T06:05:02.412Z,10.65
2018-02-23T06:07:30.703Z,10.30
2018-02-23T06:09:58.288Z,9.00
2018-02-23T06:12:26.562Z,11.10
2018-02-23T06:14:54.072Z,10.52
2018-02-23T06:20:28.613Z,11.85
2018-02-23T06:22:56.144Z,11.45
2018-02-23T06:25:23.653Z,10.95
2018-02-23T06:27:51.960Z,10.85
2018-02-23T06:30:19.461Z,10.73
2018-02-23T06:32:46.989Z,10.45
2018-02-23T06:35:14.512Z,11.38
2018-02-23T06:37:42.037Z,10.90
2018-02-23T06:40:09.570Z,10.70
2018-02-23T06:42:37.073Z,11.00
2018-02-23T06:45:04.608Z,9.95
2018-02-23T06:47:32.127Z,12.20
2018-02-23T06:49:59.635Z,13.10
2018-02-23T06:52:27.202Z,11.98
2018-02-23T06:54:54.720Z,12.32
2018-02-23T06:57:22.259Z,11.85
2018-02-23T06:59:49.779Z,12.37
2018-02-23T07:02:17.286Z,12.60
2018-02-23T07:04:44.902Z,11.32
2018-02-23T07:07:12.393Z,11.98
2018-02-23T07:09:40.669Z,12.30
2018-02-23T07:12:08.956Z,12.02
2018-02-23T07:14:36.461Z,12.23
2018-02-23T07:17:03.991Z,12.27
2018-02-23T07:19:31.497Z,11.80
2018-02-23T07:21:58.996Z,12.50
2018-02-23T07:24:26.618Z,12.27
2018-02-23T07:26:54.897Z,12.32
2018-02-23T07:29:22.440Z,12.85
2018-02-23T07:31:49.946Z,12.98
2018-02-23T07:34:17.463Z,13.20
2018-02-23T07:36:45.011Z,13.73
2018-02-23T07:39:12.517Z,10.55
2018-02-23T07:41:40.785Z,11.52
2018-02-23T07:44:09.080Z,13.52
2018-02-23T07:46:37.368Z,13.62
2018-02-23T07:49:04.877Z,9.93
2018-02-23T07:51:32.422Z,13.60
2018-02-23T07:53:59.929Z,12.35
2018-02-23T07:56:28.213Z,12.93
2018-02-23T07:58:56.488Z,13.48
2018-02-23T08:01:24.774Z,9.73
2018-02-23T08:03:52.293Z,14.38
2018-02-23T08:06:19.807Z,11.45
2018-02-23T08:08:48.269Z,13.93
2018-02-23T08:11:16.556Z,12.18
2018-02-23T08:13:44.076Z,13.43
2018-02-23T08:16:11.604Z,13.43
2018-02-23T08:18:39.128Z,12.13
2018-02-23T08:21:07.409Z,14.77
2018-02-23T08:23:34.939Z,13.02
2018-02-23T08:26:02.453Z,14.20
2018-02-23T08:28:30.022Z,14.02
2018-02-23T08:30:57.534Z,13.62
2018-02-23T08:33:25.835Z,12.57
2018-02-23T08:35:53.379Z,14.38
2018-02-23T08:38:20.889Z,13.60
2018-02-23T08:40:48.406Z,13.93
2018-02-23T08:43:15.945Z,13.18
2018-02-23T08:45:44.233Z,15.45
2018-02-23T08:48:12.529Z,14.32
2018-02-23T08:50:40.052Z,15.90
2018-02-23T08:53:07.562Z,14.98
2018-02-23T08:55:35.075Z,15.82
2018-02-23T08:58:02.601Z,13.85
2018-02-23T09:00:41.869Z,14.55
2018-02-23T09:03:09.409Z,15.25
2018-02-23T09:05:36.933Z,16.30
2018-02-23T09:08:04.468Z,14.60
2018-02-23T09:10:32.763Z,15.70
2018-02-23T09:13:00.281Z,14.55
2018-02-23T09:15:27.800Z,14.43
2018-02-23T09:17:55.317Z,15.55
2018-02-23T09:20:23.592Z,14.55
2018-02-23T09:22:51.893Z,16.48
2018-02-23T09:25:19.405Z,13.80
2018-02-23T09:27:46.932Z,15.43
2018-02-23T09:30:14.441Z,14.05
2018-02-23T09:32:41.967Z,15.18
2018-02-23T09:35:09.501Z,13.30
2018-02-23T09:37:37.042Z,15.57
2018-02-23T09:40:05.329Z,15.38
2018-02-23T09:42:32.848Z,16.37
2018-02-23T09:45:00.378Z,13.23
2018-02-23T09:47:27.915Z,15.10
2018-02-23T09:49:56.106Z,14.02
2018-02-23T09:52:23.691Z,15.38
2018-02-23T09:54:51.197Z,15.45
2018-02-23T09:57:18.706Z,14.57
2018-02-23T09:59:46.241Z,13.10
2018-02-23T10:02:13.752Z,15.43
2018-02-23T10:04:42.046Z,14.82
2018-02-23T10:07:10.329Z,17.60
2018-02-23T10:09:37.832Z,15.65
2018-02-23T10:12:05.365Z,15.45
2018-02-23T10:14:32.886Z,11.98
2018-02-23T10:17:00.422Z,14.75
2018-02-23T10:19:27.936Z,17.10
2018-02-23T10:21:55.451Z,15.80
2018-02-23T10:24:22.980Z,16.55
2018-02-23T10:26:50.491Z,18.10
2018-02-23T10:29:18.794Z,15.40
2018-02-23T10:31:46.353Z,15.75
2018-02-23T10:34:13.865Z,15.55
2018-02-23T10:36:41.393Z,16.80
2018-02-23T10:39:08.908Z,15.63
2018-02-23T10:41:37.209Z,18.35
2018-02-23T10:44:04.725Z,16.05
2018-02-23T10:46:32.269Z,16.95
2018-02-23T10:48:59.800Z,16.70
2018-02-23T10:51:27.309Z,17.60
2018-02-23T10:53:54.827Z,13.57
2018-02-23T10:56:22.332Z,16.42
2018-02-23T10:58:49.837Z,15.52
2018-02-23T11:01:17.370Z,16.80
2018-02-23T11:03:45.665Z,17.12
2018-02-23T11:06:13.200Z,16.98
2018-02-23T11:08:41.486Z,15.05
2018-02-23T11:11:09.031Z,16.85
2018-02-23T11:13:37.340Z,16.35
2018-02-23T11:16:04.863Z,16.73
2018-02-23T11:18:32.416Z,15.60
2018-02-23T11:20:59.908Z,18.05
2018-02-23T11:23:28.180Z,16.52
2018-02-23T11:25:55.715Z,15.68
2018-02-23T11:28:23.238Z,17.35
2018-02-23T11:30:50.776Z,16.58
2018-02-23T11:33:18.297Z,16.08
2018-02-23T11:35:45.828Z,15.88
2018-02-23T11:38:13.352Z,16.73
2018-02-23T11:40:40.874Z,15.88
2018-02-23T11:43:08.412Z,17.30
2018-02-23T11:45:35.928Z,18.33
2018-02-23T11:48:03.476Z,17.12
2018-02-23T11:50:31.768Z,18.17
2018-02-23T11:52:59.277Z,15.95
2018-02-23T11:55:26.823Z,17.87
2018-02-23T11:58:09.141Z,15.15
2018-02-23T12:00:36.674Z,16.92
2018-02-23T12:03:04.195Z,17.40
2018-02-23T12:05:31.696Z,17.85
2018-02-23T12:07:59.224Z,17.80
2018-02-23T12:10:27.494Z,16.33
2018-02-23T12:12:55.025Z,17.08
2018-02-23T12:15:22.557Z,17.42
2018-02-23T12:17:50.103Z,15.95
2018-02-23T12:20:17.641Z,16.25
2018-02-23T12:22:45.935Z,18.75
2018-02-23T12:25:13.490Z,16.85
2018-02-23T12:27:40.998Z,15.35
2018-02-23T12:30:08.558Z,18.35
2018-02-23T12:32:36.092Z,15.48
2018-02-23T12:35:03.617Z,16.45
2018-02-23T12:37:31.905Z,16.20
2018-02-23T12:39:59.422Z,17.25
2018-02-23T12:42:26.946Z,17.15
2018-02-23T12:44:54.491Z,17.52
2018-02-23T12:47:22.019Z,16.60
2018-02-23T12:49:49.547Z,18.45
2018-02-23T12:52:17.072Z,13.93
2018-02-23T12:54:44.611Z,16.37
2018-02-23T12:57:12.902Z,17.62
2018-02-23T12:59:40.445Z,18.87
2018-02-23T13:02:08.721Z,17.00
2018-02-23T13:04:36.995Z,16.48
2018-02-23T13:07:05.310Z,18.48
2018-02-23T13:09:32.816Z,17.65
2018-02-23T13:12:00.351Z,16.17
2018-02-23T13:14:33.476Z,17.00
2018-02-23T13:17:01.012Z,17.60
2018-02-23T13:19:28.630Z,17.30
2018-02-23T13:21:56.152Z,16.23
2018-02-23T13:24:23.704Z,18.10
2018-02-23T13:26:52.052Z,17.52
2018-02-23T13:29:19.587Z,16.15
2018-02-23T13:31:47.118Z,16.33
2018-02-23T13:34:15.448Z,17.90
2018-02-23T13:36:42.973Z,15.20
2018-02-23T13:39:10.522Z,17.05
2018-02-23T13:41:40.815Z,18.17
2018-02-23T13:44:08.331Z,16.62
2018-02-23T13:46:35.867Z,16.10
2018-02-23T13:49:04.141Z,16.48
2018-02-23T13:51:32.442Z,16.50
2018-02-23T13:54:05.582Z,17.12
2018-02-23T13:56:33.592Z,15.95
2018-02-23T13:59:01.874Z,18.83
2018-02-23T14:01:30.148Z,16.95
2018-02-23T14:03:58.464Z,16.20
2018-02-23T14:06:33.735Z,15.15
2018-02-23T14:09:01.267Z,16.55
2018-02-23T14:11:28.794Z,15.90
2018-02-23T14:13:56.346Z,16.17
2018-02-23T14:16:24.670Z,16.50
2018-02-23T14:18:58.053Z,17.35
2018-02-23T14:21:25.584Z,16.60
2018-02-23T14:23:53.854Z,14.38
2018-02-23T14:26:23.072Z,15.10
2018-02-23T14:28:50.703Z,15.07
2018-02-23T14:31:18.233Z,15.45
2018-02-23T14:33:45.834Z,14.85
2018-02-23T14:36:14.106Z,14.35
2018-02-23T14:38:41.638Z,11.05
2018-02-23T14:41:09.168Z,13.13
2018-02-23T14:43:36.743Z,14.25
2018-02-23T14:46:04.252Z,15.95
2018-02-23T14:48:44.314Z,14.15
2018-02-23T14:51:11.905Z,15.93
2018-02-23T14:53:39.437Z,16.52
2018-02-23T14:56:07.744Z,16.20
2018-02-23T14:58:35.274Z,13.57
2018-02-23T15:01:02.837Z,16.48
2018-02-23T15:03:31.278Z,14.55
2018-02-23T15:05:58.852Z,16.52
2018-02-23T15:08:26.502Z,15.98
2018-02-23T15:10:54.022Z,14.30
2018-02-23T15:13:21.561Z,15.68
2018-02-23T15:15:49.638Z,16.08
2018-02-23T15:18:17.194Z,15.25
2018-02-23T15:20:45.489Z,15.40
2018-02-23T15:23:13.993Z,16.37
2018-02-23T15:25:41.545Z,14.35
2018-02-23T15:28:09.058Z,16.37
2018-02-23T15:30:48.516Z,15.18
2018-02-23T15:33:16.100Z,16.08
2018-02-23T15:35:43.629Z,15.80
2018-02-23T15:38:11.928Z,16.98
2018-02-23T15:40:39.467Z,14.85
2018-02-23T15:43:07.779Z,17.10
2018-02-23T15:45:35.297Z,15.38
2018-02-23T15:48:09.254Z,16.23
2018-02-23T15:53:46.226Z,16.90
2018-02-23T15:56:13.798Z,15.65
2018-02-23T15:58:44.875Z,17.02
2018-02-23T16:01:12.400Z,16.02
2018-02-23T16:03:39.960Z,16.77
2018-02-23T16:06:08.325Z,16.00
2018-02-23T16:08:35.905Z,15.77
2018-02-23T16:11:03.486Z,15.75
2018-02-23T16:13:31.781Z,16.48
2018-02-23T16:16:00.094Z,16.60
2018-02-23T16:18:27.632Z,16.65
2018-02-23T16:20:55.223Z,16.00
2018-02-23T16:23:23.560Z,15.57
2018-02-23T16:25:51.191Z,15.57
2018-02-23T16:28:18.769Z,16.05
2018-02-23T16:30:46.310Z,16.35
2018-02-23T16:33:13.928Z,16.35
2018-02-23T16:35:41.548Z,17.35
2018-02-23T16:38:09.065Z,16.17
2018-02-23T16:40:36.597Z,17.05
2018-02-23T16:43:04.144Z,18.98
2018-02-23T16:45:31.752Z,17.52
2018-02-23T16:48:00.037Z,18.08
2018-02-23T16:50:27.560Z,15.93
2018-02-23T16:53:01.175Z,16.90
2018-02-23T16:55:28.782Z,15.55
2018-02-23T16:57:56.394Z,17.00
2018-02-23T17:00:23.926Z,16.92
2018-02-23T17:02:51.543Z,17.17
2018-02-23T17:05:19.787Z,17.50
2018-02-23T17:07:47.317Z,15.75
2018-02-23T17:10:16.548Z,18.10
2018-02-23T17:12:44.102Z,16.00
2018-02-23T17:15:12.750Z,18.62
2018-02-23T17:17:41.622Z,16.50
2018-02-23T17:20:09.182Z,15.10
2018-02-23T17:22:36.713Z,15.75
2018-02-23T17:25:04.764Z,15.85
2018-02-23T17:27:32.356Z,16.87
2018-02-23T17:30:05.433Z,17.35
2018-02-23T17:32:32.990Z,17.85
2018-02-23T17:35:00.583Z,17.05
2018-02-23T17:37:28.171Z,15.27
2018-02-23T17:42:29.745Z,16.77
2018-02-23T17:44:58.001Z,17.48
2018-02-23T17:47:25.593Z,17.77
2018-02-23T17:49:53.142Z,18.00
2018-02-23T17:52:20.746Z,17.17
2018-02-23T17:54:48.349Z,18.25
2018-02-23T17:57:15.971Z,17.73
2018-02-23T17:59:43.569Z,15.90
2018-02-23T18:02:11.883Z,18.90
2018-02-23T18:04:40.229Z,16.70
2018-02-23T18:07:07.836Z,19.25
2018-02-23T18:09:36.194Z,19.90
2018-02-23T18:12:03.751Z,15.77
2018-02-23T18:14:31.347Z,18.55
2018-02-23T18:16:58.994Z,18.05
2018-02-23T18:19:26.554Z,17.10
2018-02-23T18:21:54.106Z,16.05
2018-02-23T18:24:21.781Z,17.70
2018-02-23T18:26:50.232Z,17.60
2018-02-23T18:29:17.892Z,17.77
2018-02-23T18:31:45.433Z,18.27
2018-02-23T18:34:13.004Z,17.37
2018-02-23T18:36:40.698Z,18.92
2018-02-23T18:39:08.290Z,16.85
2018-02-23T18:41:35.856Z,17.75
2018-02-23T18:44:03.396Z,17.92
2018-02-23T18:46:30.951Z,17.52
2018-02-23T18:48:58.771Z,18.55
2018-02-23T18:51:26.301Z,16.60
2018-02-23T18:53:53.841Z,18.08
2018-02-23T18:56:21.373Z,16.40
2018-02-23T18:58:49.018Z,17.58
2018-02-23T19:01:16.580Z,16.73
2018-02-23T19:03:44.124Z,18.55
2018-02-23T19:06:12.409Z,16.40
2018-02-23T19:08:39.955Z,16.73
2018-02-23T19:11:08.282Z,17.65
2018-02-23T19:13:35.782Z,18.00
2018-02-23T19:16:03.425Z,17.05
2018-02-23T19:18:32.964Z,16.65
2018-02-23T19:21:01.271Z,18.35
2018-02-23T19:23:28.786Z,17.05
2018-02-23T19:25:56.340Z,16.70
2018-02-23T19:28:23.847Z,17.55
2018-02-23T19:30:51.356Z,17.92
2018-02-23T19:33:18.885Z,18.65
2018-02-23T19:35:47.412Z,17.10
2018-02-23T19:38:14.956Z,18.02
2018-02-23T19:40:42.478Z,17.87
2018-02-23T19:43:10.012Z,18.70
2018-02-23T19:45:38.365Z,16.92
2018-02-23T19:48:05.845Z,16.37
2018-02-23T19:50:34.157Z,18.48
2018-02-23T19:53:01.675Z,15.90
2018-02-23T19:55:29.982Z,18.80
2018-02-23T19:57:57.758Z,18.02
2018-02-23T20:00:25.295Z,19.25
2018-02-23T20:02:53.569Z,18.55
2018-02-23T20:05:21.156Z,18.75
2018-02-23T20:07:48.726Z,19.08
2018-02-23T20:10:16.252Z,14.43
2018-02-23T20:12:44.556Z,18.85
2018-02-23T20:15:12.062Z,19.20
2018-02-23T20:17:39.607Z,20.37
2018-02-23T20:20:07.148Z,20.12
2018-02-23T20:22:34.676Z,19.77
2018-02-23T20:25:02.205Z,18.10
2018-02-23T20:27:30.532Z,17.60
2018-02-23T20:29:58.077Z,17.35
2018-02-23T20:32:25.584Z,18.95
2018-02-23T20:34:53.135Z,20.58
2018-02-23T20:37:20.645Z,17.95
2018-02-23T20:39:49.051Z,17.35
2018-02-23T20:42:16.567Z,18.00
2018-02-23T20:44:44.209Z,19.52
2018-02-23T20:47:11.764Z,19.33
2018-02-23T20:49:39.289Z,18.37
2018-02-23T20:52:06.821Z,20.23
2018-02-23T20:54:35.108Z,20.80
2018-02-23T20:57:02.648Z,20.10
2018-02-23T20:59:30.933Z,19.92
2018-02-23T21:01:58.482Z,19.92
2018-02-23T21:04:26.032Z,16.92
2018-02-23T21:06:53.549Z,21.12
2018-02-23T21:09:22.013Z,19.95
2018-02-23T21:11:49.524Z,21.40
2018-02-23T21:14:17.058Z,21.90
2018-02-23T21:16:44.581Z,19.48
2018-02-23T21:19:12.976Z,21.25
2018-02-23T21:21:40.519Z,19.30
2018-02-23T21:24:08.811Z,23.65
2018-02-23T21:26:36.340Z,19.08
2018-02-23T21:29:03.846Z,19.45
2018-02-23T21:31:31.390Z,18.02
2018-02-23T21:33:58.921Z,20.70
2018-02-23T21:36:26.458Z,21.62
2018-02-23T21:38:53.960Z,20.48
2018-02-23T21:41:21.489Z,18.15
2018-02-23T21:43:49.031Z,19.62
2018-02-23T21:46:17.302Z,23.23
2018-02-23T21:48:44.856Z,21.60
2018-02-23T21:51:12.380Z,20.70
2018-02-23T21:53:39.912Z,19.62
2018-02-23T21:56:07.433Z,15.25
2018-02-23T21:58:34.951Z,22.02
2018-02-23T22:01:03.250Z,22.10
2018-02-23T22:03:30.761Z,21.55
2018-02-23T22:05:58.349Z,20.92
2018-02-23T22:08:26.629Z,22.10
2018-02-23T22:10:54.960Z,20.50
2018-02-23T22:13:22.475Z,20.12
2018-02-23T22:15:50.006Z,20.42
2018-02-23T22:18:17.536Z,20.95
2018-02-23T22:20:45.048Z,21.95
2018-02-23T22:23:13.346Z,18.25
2018-02-23T22:25:40.862Z,18.10
2018-02-23T22:28:08.399Z,22.10
2018-02-23T22:30:35.912Z,21.10
2018-02-23T22:33:03.441Z,20.83
2018-02-23T22:35:30.951Z,20.60
2018-02-23T22:37:58.469Z,20.48
2018-02-23T22:40:26.782Z,20.23
2018-02-23T22:42:54.311Z,20.55
2018-02-23T22:45:22.626Z,21.30
2018-02-23T22:47:50.145Z,20.65
2018-02-23T22:50:18.458Z,21.58
2018-02-23T22:52:45.977Z,21.20
2018-02-23T22:55:13.494Z,20.62
2018-02-23T22:57:41.037Z,18.45
2018-02-23T23:00:08.558Z,19.77
2018-02-23T23:02:36.090Z,20.60
2018-02-23T23:05:03.663Z,20.75
2018-02-23T23:07:31.205Z,22.73
2018-02-23T23:09:58.716Z,20.45
2018-02-23T23:12:27.009Z,18.50
2018-02-23T23:14:54.524Z,22.48
2018-02-23T23:17:22.039Z,19.55
2018-02-23T23:19:49.572Z,18.40
2018-02-23T23:22:17.861Z,21.80
2018-02-23T23:24:45.414Z,23.45
2018-02-23T23:27:12.920Z,23.87
2018-02-23T23:29:40.446Z,20.77
2018-02-23T23:32:07.952Z,22.25
2018-02-23T23:34:35.466Z,21.67
2018-02-23T23:37:02.992Z,21.95
2018-02-23T23:39:31.302Z,20.50
2018-02-23T23:41:58.874Z,21.27
2018-02-23T23:44:27.154Z,23.00
2018-02-23T23:46:54.689Z,22.13
2018-02-23T23:49:22.980Z,21.30
2018-02-23T23:51:50.490Z,21.75
2018-02-23T23:54:18.033Z,21.33
2018-02-23T23:56:45.538Z,19.25
2018-02-23T23:59:13.816Z,20.75
